createdAt,value
2018-03-29T00:01:00.229Z,11.33
2018-03-29T00:02:10.085Z,11.33
2018-03-29T00:03:19.881Z,11.39
2018-03-29T00:04:29.954Z,11.43
2018-03-29T00:05:40.063Z,11.34
2018-03-29T00:06:49.590Z,11.48
2018-03-29T00:07:59.659Z,11.46
2018-03-29T00:09:09.762Z,11.52
2018-03-29T00:10:19.819Z,11.52
2018-03-29T00:11:29.634Z,11.48
2018-03-29T00:12:38.908Z,11.53
2018-03-29T00:13:48.500Z,11.53
2018-03-29T00:14:58.313Z,11.51
2018-03-29T00:16:08.121Z,11.51
2018-03-29T00:17:17.928Z,11.52
2018-03-29T00:18:27.727Z,11.56
2018-03-29T00:19:37.063Z,11.52
2018-03-29T00:20:46.860Z,11.48
2018-03-29T00:21:56.665Z,11.56
2018-03-29T00:23:06.472Z,11.42
2018-03-29T00:24:16.544Z,11.46
2018-03-29T00:25:26.703Z,11.42
2018-03-29T00:26:36.494Z,11.45
2018-03-29T00:27:46.594Z,11.38
2018-03-29T00:28:56.676Z,11.42
2018-03-29T00:30:06.482Z,11.39
2018-03-29T00:31:16.344Z,11.34
2018-03-29T00:32:25.621Z,11.41
2018-03-29T00:33:35.409Z,11.38
2018-03-29T00:34:45.468Z,11.3
2018-03-29T00:35:55.536Z,11.31
2018-03-29T00:37:05.376Z,11.21
2018-03-29T00:38:15.447Z,11.28
2018-03-29T00:39:25.540Z,11.2
2018-03-29T00:40:35.602Z,11.23
2018-03-29T00:41:45.664Z,11.1
2018-03-29T00:42:55.480Z,11.2
2018-03-29T00:44:05.325Z,11.15
2018-03-29T00:45:15.379Z,11.15
2018-03-29T00:46:25.450Z,11.13
2018-03-29T00:47:35.249Z,11.08
2018-03-29T00:48:45.125Z,11.09
2018-03-29T00:49:54.932Z,11.12
2018-03-29T00:51:04.726Z,11.2
2018-03-29T00:52:14.804Z,11.13
2018-03-29T00:53:24.872Z,11.1
2018-03-29T00:54:34.929Z,11.2
2018-03-29T00:55:44.733Z,11.05
2018-03-29T00:56:54.811Z,11.08
2018-03-29T00:58:04.620Z,11.05
2018-03-29T00:59:14.717Z,11.05
2018-03-29T01:00:24.827Z,11
2018-03-29T01:01:34.632Z,10.9
2018-03-29T01:02:44.712Z,10.98
2018-03-29T01:03:54.794Z,10.98
2018-03-29T01:05:04.857Z,10.94
2018-03-29T01:06:14.983Z,10.91
2018-03-29T01:07:24.797Z,10.9
2018-03-29T01:08:34.915Z,10.83
2018-03-29T01:09:44.974Z,10.9
2018-03-29T01:10:54.774Z,10.77
2018-03-29T01:12:04.856Z,10.87
2018-03-29T01:13:14.403Z,10.79
2018-03-29T01:14:24.458Z,10.85
2018-03-29T01:15:34.260Z,10.8
2018-03-29T01:16:44.328Z,10.8
2018-03-29T01:17:54.397Z,10.83
2018-03-29T01:19:04.216Z,10.76
2018-03-29T01:20:14.287Z,10.9
2018-03-29T01:21:24.420Z,10.91
2018-03-29T01:22:34.482Z,10.97
2018-03-29T01:23:44.562Z,10.88
2018-03-29T01:24:54.631Z,10.92
2018-03-29T01:26:04.451Z,10.91
2018-03-29T01:27:14.250Z,10.85
2018-03-29T01:28:24.332Z,10.88
2018-03-29T01:29:34.396Z,10.87
2018-03-29T01:30:44.455Z,10.94
2018-03-29T01:31:54.506Z,10.9
2018-03-29T01:33:04.299Z,10.92
2018-03-29T01:34:14.361Z,10.87
2018-03-29T01:35:24.216Z,10.88
2018-03-29T01:36:34.012Z,10.97
2018-03-29T01:37:43.856Z,10.91
2018-03-29T01:38:53.925Z,10.84
2018-03-29T01:40:03.710Z,10.87
2018-03-29T01:41:13.771Z,10.91
2018-03-29T01:42:23.836Z,10.88
2018-03-29T01:43:33.649Z,10.84
2018-03-29T01:44:43.438Z,10.87
2018-03-29T01:45:53.261Z,10.87
2018-03-29T01:47:03.333Z,10.95
2018-03-29T01:48:13.125Z,10.97
2018-03-29T01:49:23.206Z,10.9
2018-03-29T01:50:33.013Z,10.92
2018-03-29T01:51:42.829Z,10.92
2018-03-29T01:52:52.942Z,10.95
2018-03-29T01:54:03.020Z,10.98
2018-03-29T01:55:13.085Z,11
2018-03-29T01:56:22.888Z,11
2018-03-29T01:57:32.439Z,10.95
2018-03-29T01:58:42.503Z,10.97
2018-03-29T01:59:51.513Z,10.97
2018-03-29T02:01:01.430Z,10.92
2018-03-29T02:02:11.506Z,11
2018-03-29T02:03:21.304Z,11.02
2018-03-29T02:04:31.439Z,11.08
2018-03-29T02:05:41.529Z,10.98
2018-03-29T02:06:51.353Z,11.03
2018-03-29T02:08:01.155Z,10.97
2018-03-29T02:09:10.972Z,10.98
2018-03-29T02:10:20.789Z,11.02
2018-03-29T02:11:30.589Z,10.94
2018-03-29T02:12:40.396Z,10.98
2018-03-29T02:13:49.928Z,11.02
2018-03-29T02:14:59.456Z,11.05
2018-03-29T02:16:09.522Z,10.97
2018-03-29T02:17:19.318Z,10.87
2018-03-29T02:18:29.142Z,10.94
2018-03-29T02:19:39.201Z,10.92
2018-03-29T02:20:48.740Z,10.85
2018-03-29T02:21:58.343Z,10.87
2018-03-29T02:23:08.391Z,10.85
2018-03-29T02:24:17.956Z,10.9
2018-03-29T02:25:27.762Z,10.87
2018-03-29T02:26:37.828Z,10.92
2018-03-29T02:27:47.893Z,11.03
2018-03-29T02:28:57.950Z,11
2018-03-29T02:30:07.764Z,10.85
2018-03-29T02:31:17.573Z,10.88
2018-03-29T02:32:27.115Z,10.9
2018-03-29T02:33:37.307Z,10.91
2018-03-29T02:34:47.147Z,10.85
2018-03-29T02:35:57.212Z,10.85
2018-03-29T02:37:07.286Z,10.9
2018-03-29T02:38:16.841Z,10.95
2018-03-29T02:39:26.660Z,11.02
2018-03-29T02:40:36.484Z,11.05
2018-03-29T02:41:46.302Z,11.02
2018-03-29T02:42:56.138Z,10.95
2018-03-29T02:44:06.243Z,11.08
2018-03-29T02:45:16.112Z,11.03
2018-03-29T02:46:25.909Z,10.97
2018-03-29T02:47:35.982Z,10.94
2018-03-29T02:48:45.794Z,11
2018-03-29T02:49:55.856Z,10.95
2018-03-29T02:51:06.026Z,11
2018-03-29T02:52:15.835Z,11
2018-03-29T02:53:25.110Z,10.94
2018-03-29T02:54:35.210Z,10.98
2018-03-29T02:55:45.024Z,10.94
2018-03-29T02:56:54.634Z,10.98
2018-03-29T02:58:04.181Z,10.97
2018-03-29T02:59:13.997Z,10.91
2018-03-29T03:00:23.832Z,11
2018-03-29T03:01:33.621Z,10.98
2018-03-29T03:02:43.228Z,11.05
2018-03-29T03:03:53.351Z,11.06
2018-03-29T03:05:03.452Z,11.1
2018-03-29T03:36:55.133Z,8.46
2018-03-29T03:38:04.931Z,8.35
2018-03-29T03:39:14.974Z,8.4
2018-03-29T03:40:25.015Z,8.47
2018-03-29T03:41:35.072Z,8.44
2018-03-29T03:42:44.854Z,8.57
2018-03-29T03:43:54.930Z,8.65
2018-03-29T03:45:04.746Z,8.83
2018-03-29T03:46:14.550Z,8.97
2018-03-29T03:47:24.768Z,9.14
2018-03-29T03:48:38.086Z,9.24
2018-03-29T03:49:49.519Z,9.44
2018-03-29T03:50:59.610Z,9.62
2018-03-29T03:52:09.408Z,9.81
2018-03-29T03:53:19.465Z,9.89
2018-03-29T03:54:29.525Z,10.02
2018-03-29T03:55:39.605Z,10.25
2018-03-29T03:56:49.679Z,10.33
2018-03-29T03:57:59.486Z,10.46
2018-03-29T03:59:09.547Z,10.55
2018-03-29T04:00:19.409Z,10.61
2018-03-29T04:01:29.474Z,10.63
2018-03-29T04:02:39.562Z,10.7
2018-03-29T04:03:49.653Z,10.79
2018-03-29T04:04:59.726Z,10.87
2018-03-29T04:06:09.578Z,11.03
2018-03-29T04:07:19.620Z,11.06
2018-03-29T04:08:29.428Z,11.13
2018-03-29T04:09:39.485Z,11.12
2018-03-29T04:10:49.545Z,11.16
2018-03-29T04:11:59.682Z,11.15
2018-03-29T04:13:09.742Z,11.35
2018-03-29T04:14:19.799Z,11.38
2018-03-29T04:15:29.863Z,11.42
2018-03-29T04:16:39.931Z,11.49
2018-03-29T04:17:50.070Z,11.67
2018-03-29T04:18:59.876Z,11.66
2018-03-29T04:20:09.723Z,11.82
2018-03-29T04:21:19.792Z,11.75
2018-03-29T04:22:29.838Z,11.85
2018-03-29T04:23:39.695Z,12
2018-03-29T04:24:49.506Z,12.03
2018-03-29T04:25:59.312Z,12.13
2018-03-29T04:27:09.394Z,12.2
2018-03-29T04:28:19.437Z,12.28
2018-03-29T04:29:29.498Z,12.38
2018-03-29T04:30:39.309Z,12.48
2018-03-29T04:31:49.102Z,12.51
2018-03-29T04:32:58.648Z,12.63
2018-03-29T04:34:08.717Z,12.63
2018-03-29T04:35:18.590Z,12.74
2018-03-29T04:36:28.390Z,12.83
2018-03-29T04:37:38.470Z,12.84
2018-03-29T04:38:48.293Z,12.88
2018-03-29T04:39:58.130Z,12.95
2018-03-29T04:41:08.222Z,13.01
2018-03-29T04:42:17.738Z,13.11
2018-03-29T04:43:27.832Z,13.11
2018-03-29T04:44:37.892Z,13.14
2018-03-29T04:45:47.432Z,13.17
2018-03-29T04:46:57.238Z,13.24
2018-03-29T04:48:07.315Z,13.27
2018-03-29T04:49:17.467Z,13.32
2018-03-29T04:50:27.539Z,13.27
2018-03-29T04:51:37.077Z,13.36
2018-03-29T04:52:47.134Z,13.36
2018-03-29T04:53:56.400Z,13.45
2018-03-29T04:55:06.455Z,13.45
2018-03-29T04:56:16.536Z,13.6
2018-03-29T04:57:26.346Z,13.62
2018-03-29T04:58:36.410Z,13.55
2018-03-29T04:59:46.461Z,13.63
2018-03-29T05:00:56.250Z,13.68
2018-03-29T05:02:06.048Z,13.69
2018-03-29T05:03:15.861Z,13.76
2018-03-29T05:04:25.979Z,13.83
2018-03-29T05:05:35.786Z,13.93
2018-03-29T05:06:45.584Z,13.88
2018-03-29T05:07:54.866Z,13.9
2018-03-29T05:09:04.664Z,13.94
2018-03-29T05:10:14.522Z,13.94
2018-03-29T05:11:24.581Z,13.97
2018-03-29T05:12:34.124Z,14.06
2018-03-29T05:13:43.995Z,14.09
2018-03-29T05:14:53.783Z,14.13
2018-03-29T05:16:03.652Z,14.06
2018-03-29T05:17:13.475Z,14.2
2018-03-29T05:18:23.268Z,14.23
2018-03-29T05:19:33.063Z,14.24
2018-03-29T05:20:43.142Z,14.27
2018-03-29T05:21:53.222Z,14.27
2018-03-29T05:23:02.768Z,14.26
2018-03-29T05:24:12.845Z,14.26
2018-03-29T05:25:22.902Z,14.3
2018-03-29T05:26:33.170Z,14.26
2018-03-29T05:27:43.271Z,14.3
2018-03-29T05:28:53.383Z,14.33
2018-03-29T05:30:02.665Z,14.39
2018-03-29T05:31:12.752Z,14.42
2018-03-29T05:32:22.334Z,14.45
2018-03-29T05:33:32.199Z,14.51
2018-03-29T05:34:42.010Z,14.45
2018-03-29T05:35:52.088Z,14.45
2018-03-29T05:37:01.898Z,14.52
2018-03-29T05:38:11.703Z,14.63
2018-03-29T05:39:20.988Z,14.59
2018-03-29T05:40:30.571Z,14.71
2018-03-29T05:41:40.374Z,14.69
2018-03-29T05:42:50.473Z,14.66
2018-03-29T05:44:00.582Z,14.64
2018-03-29T05:45:10.674Z,14.66
2018-03-29T05:46:20.763Z,14.7
2018-03-29T05:47:30.831Z,14.7
2018-03-29T05:48:40.642Z,14.77
2018-03-29T05:49:50.731Z,14.79
2018-03-29T05:51:00.563Z,14.82
2018-03-29T05:52:10.657Z,14.77
2018-03-29T05:53:20.500Z,14.75
2018-03-29T05:54:30.326Z,14.75
2018-03-29T05:55:40.395Z,14.9
2018-03-29T05:56:50.461Z,14.86
2018-03-29T05:58:00.001Z,14.9
2018-03-29T05:59:10.074Z,14.98
2018-03-29T06:00:20.130Z,15.02
2018-03-29T06:01:29.918Z,15.04
2018-03-29T06:02:40.022Z,15.07
2018-03-29T06:03:49.833Z,15.15
2018-03-29T06:04:59.101Z,15.12
2018-03-29T06:06:09.169Z,15.16
2018-03-29T06:07:19.241Z,15.1
2018-03-29T06:08:29.382Z,15.2
2018-03-29T06:09:39.500Z,15.2
2018-03-29T06:10:49.581Z,15.27
2018-03-29T06:11:59.384Z,15.27
2018-03-29T06:13:09.210Z,15.34
2018-03-29T06:14:19.001Z,15.2
2018-03-29T06:15:28.843Z,15.2
2018-03-29T06:16:38.654Z,15.3
2018-03-29T06:17:48.804Z,15.27
2018-03-29T06:18:58.364Z,15.18
2018-03-29T06:20:07.920Z,15.25
2018-03-29T06:21:18.068Z,15.26
2018-03-29T06:22:27.618Z,15.38
2018-03-29T06:23:37.759Z,15.25
2018-03-29T06:24:47.834Z,15.19
2018-03-29T06:25:57.894Z,15.18
2018-03-29T06:27:07.456Z,15.27
2018-03-29T06:28:17.537Z,15.2
2018-03-29T06:29:27.349Z,15.22
2018-03-29T06:30:36.922Z,15.2
2018-03-29T06:31:46.748Z,15.15
2018-03-29T06:32:56.315Z,15.22
2018-03-29T06:34:05.593Z,15.16
2018-03-29T06:35:15.674Z,15.19
2018-03-29T06:36:25.488Z,15.27
2018-03-29T06:37:35.613Z,15.37
2018-03-29T06:38:45.728Z,15.33
2018-03-29T06:39:55.806Z,15.35
2018-03-29T06:41:05.348Z,15.35
2018-03-29T06:42:15.417Z,15.45
2018-03-29T06:43:25.240Z,15.53
2018-03-29T06:44:35.054Z,15.53
2018-03-29T06:45:45.144Z,15.44
2018-03-29T06:46:55.261Z,15.43
2018-03-29T06:48:05.457Z,15.53
2018-03-29T06:49:15.334Z,15.53
2018-03-29T06:50:25.407Z,15.53
2018-03-29T06:51:35.498Z,15.56
2018-03-29T06:52:45.300Z,15.59
2018-03-29T06:53:55.361Z,15.59
2018-03-29T06:55:05.201Z,15.68
2018-03-29T06:56:15.001Z,15.62
2018-03-29T06:57:24.807Z,15.67
2018-03-29T06:58:34.923Z,15.68
2018-03-29T06:59:44.760Z,15.75
2018-03-29T07:00:54.663Z,15.71
2018-03-29T07:02:04.364Z,15.83
2018-03-29T07:03:14.436Z,15.95
2018-03-29T07:04:24.252Z,15.95
2018-03-29T07:05:33.785Z,15.99
2018-03-29T07:06:43.841Z,16.11
2018-03-29T07:07:53.917Z,16.22
2018-03-29T07:09:03.980Z,16.25
2018-03-29T07:10:13.545Z,16.3
2018-03-29T07:11:22.846Z,16.34
2018-03-29T07:12:32.975Z,16.36
2018-03-29T07:13:43.040Z,16.39
2018-03-29T07:14:53.109Z,16.42
2018-03-29T07:16:03.296Z,16.34
2018-03-29T07:17:12.826Z,16.48
2018-03-29T07:18:22.633Z,16.34
2018-03-29T07:19:32.452Z,16.47
2018-03-29T07:20:41.998Z,16.42
2018-03-29T07:21:52.110Z,16.52
2018-03-29T07:23:01.722Z,16.57
2018-03-29T07:24:11.523Z,16.62
2018-03-29T07:25:20.805Z,16.58
2018-03-29T07:26:30.340Z,16.67
2018-03-29T07:27:40.412Z,16.66
2018-03-29T07:28:50.839Z,16.62
2018-03-29T07:30:00.907Z,16.76
2018-03-29T07:31:10.989Z,16.63
2018-03-29T07:32:20.801Z,16.54
2018-03-29T07:33:30.358Z,16.54
2018-03-29T07:34:40.173Z,16.58
2018-03-29T07:35:49.984Z,16.55
2018-03-29T07:37:00.077Z,16.59
2018-03-29T07:38:09.622Z,16.47
2018-03-29T07:39:19.176Z,16.47
2018-03-29T07:40:28.727Z,16.44
2018-03-29T07:41:38.849Z,16.42
2018-03-29T07:42:48.921Z,16.34
2018-03-29T07:43:58.718Z,16.44
2018-03-29T07:45:08.541Z,16.33
2018-03-29T07:46:18.336Z,16.34
2018-03-29T07:47:28.148Z,16.34
2018-03-29T07:48:37.705Z,16.36
2018-03-29T07:49:47.495Z,16.4
2018-03-29T07:50:57.319Z,16.37
2018-03-29T07:52:07.151Z,16.32
2018-03-29T07:53:16.713Z,16.44
2018-03-29T07:54:26.806Z,16.42
2018-03-29T07:55:36.884Z,16.36
2018-03-29T07:56:46.693Z,16.47
2018-03-29T07:57:56.316Z,16.37
2018-03-29T07:59:06.209Z,16.44
2018-03-29T08:00:16.035Z,16.44
2018-03-29T08:01:25.838Z,16.45
2018-03-29T08:02:35.667Z,16.44
2018-03-29T08:03:45.224Z,16.45
2018-03-29T08:04:55.345Z,16.49
2018-03-29T08:06:05.157Z,16.49
2018-03-29T08:07:15.057Z,16.47
2018-03-29T08:08:25.173Z,16.44
2018-03-29T08:09:35.251Z,16.36
2018-03-29T08:10:45.056Z,16.37
2018-03-29T08:11:55.127Z,16.45
2018-03-29T08:13:05.177Z,16.34
2018-03-29T08:14:14.978Z,16.32
2018-03-29T08:15:25.051Z,16.34
2018-03-29T08:16:34.897Z,16.27
2018-03-29T08:17:44.177Z,16.29
2018-03-29T08:18:53.719Z,16.26
2018-03-29T08:20:03.790Z,16.22
2018-03-29T08:21:13.602Z,16.18
2018-03-29T08:22:23.769Z,16.17
2018-03-29T08:23:33.895Z,16.17
2018-03-29T08:24:43.708Z,16.17
2018-03-29T08:25:53.784Z,16.13
2018-03-29T08:27:03.634Z,16.14
2018-03-29T08:28:13.513Z,16.1
2018-03-29T08:29:23.323Z,16.1
2018-03-29T08:30:33.415Z,16.16
2018-03-29T08:31:42.972Z,16.17
2018-03-29T08:32:53.052Z,16.16
2018-03-29T08:34:02.650Z,16.18
2018-03-29T08:35:12.464Z,16.1
2018-03-29T08:36:22.001Z,16.18
2018-03-29T08:37:32.084Z,16.08
2018-03-29T08:38:41.625Z,16.29
2018-03-29T08:39:51.436Z,16.36
2018-03-29T08:41:01.262Z,16.36
2018-03-29T08:42:11.100Z,16.39
2018-03-29T08:43:21.293Z,16.47
2018-03-29T08:51:12.715Z,16.54
2018-03-29T08:52:22.547Z,16.65
2018-03-29T08:53:32.746Z,16.58
2018-03-29T08:54:42.835Z,16.65
2018-03-29T08:55:52.911Z,16.55
2018-03-29T08:57:03.196Z,16.55
2018-03-29T08:58:12.778Z,16.55
2018-03-29T08:59:22.876Z,16.51
2018-03-29T09:00:32.994Z,16.48
2018-03-29T09:01:43.090Z,16.45
2018-03-29T09:02:53.173Z,16.37
2018-03-29T09:04:02.800Z,16.34
2018-03-29T09:05:12.398Z,16.4
2018-03-29T09:06:21.964Z,16.42
2018-03-29T09:07:31.801Z,16.47
2018-03-29T09:08:41.616Z,16.52
2018-03-29T09:09:51.586Z,16.63
2018-03-29T09:11:01.389Z,16.67
2018-03-29T09:12:10.928Z,16.74
2018-03-29T09:13:21.020Z,16.67
2018-03-29T09:14:31.085Z,16.67
2018-03-29T09:15:40.654Z,16.81
2018-03-29T09:16:50.727Z,16.84
2018-03-29T09:18:00.555Z,16.95
2018-03-29T09:19:10.648Z,16.88
2018-03-29T09:20:20.492Z,16.88
2018-03-29T09:21:30.616Z,16.87
2018-03-29T09:22:40.678Z,16.95
2018-03-29T09:23:50.256Z,16.94
2018-03-29T09:25:00.363Z,17.05
2018-03-29T09:26:09.915Z,17.1
2018-03-29T09:27:20.020Z,17.06
2018-03-29T09:28:30.141Z,17.13
2018-03-29T09:29:39.987Z,17.21
2018-03-29T09:30:50.222Z,17.15
2018-03-29T09:32:11.200Z,17.18
2018-03-29T09:33:21.339Z,17.13
2018-03-29T09:34:31.505Z,17.1
2018-03-29T09:35:41.224Z,17.1
2018-03-29T09:36:51.419Z,17.06
2018-03-29T09:38:00.750Z,16.94
2018-03-29T09:39:10.121Z,17
2018-03-29T09:40:19.679Z,16.9
2018-03-29T09:41:29.793Z,16.92
2018-03-29T09:42:39.453Z,16.97
2018-03-29T09:43:49.541Z,17.02
2018-03-29T09:44:59.682Z,17.07
2018-03-29T09:46:09.757Z,17.17
2018-03-29T09:47:19.593Z,17.21
2018-03-29T09:48:29.136Z,17.32
2018-03-29T09:49:38.445Z,17.3
2018-03-29T09:50:48.764Z,17.32
2018-03-29T09:51:58.591Z,17.43
2018-03-29T09:53:08.453Z,17.5
2018-03-29T09:54:18.321Z,17.5
2018-03-29T09:55:27.876Z,17.65
2018-03-29T09:56:37.980Z,17.76
2018-03-29T09:57:48.064Z,17.84
2018-03-29T09:58:57.652Z,18.03
2018-03-29T10:00:07.482Z,18.05
2018-03-29T10:01:17.571Z,18.16
2018-03-29T10:02:27.678Z,18.16
2018-03-29T10:03:37.499Z,18.29
2018-03-29T10:04:47.569Z,18.26
2018-03-29T10:05:57.391Z,18.44
2018-03-29T10:07:07.226Z,18.59
2018-03-29T10:08:17.310Z,18.87
2018-03-29T10:09:27.405Z,18.97
2018-03-29T10:10:37.510Z,19.27
2018-03-29T10:11:47.646Z,19.5
2018-03-29T10:12:57.473Z,19.63
2018-03-29T10:14:07.313Z,19.8
2018-03-29T10:15:17.143Z,19.98
2018-03-29T10:16:27.230Z,20.11
2018-03-29T10:17:37.108Z,20.25
2018-03-29T10:18:46.998Z,20.27
2018-03-29T10:19:57.148Z,20.29
2018-03-29T10:21:06.994Z,20.26
2018-03-29T10:22:17.097Z,20.4
2018-03-29T10:23:27.245Z,20.44
2018-03-29T10:24:36.816Z,20.68
2018-03-29T10:25:46.397Z,20.82
2018-03-29T10:26:56.224Z,20.98
2018-03-29T10:28:06.056Z,21.12
2018-03-29T10:29:15.911Z,21.16
2018-03-29T10:30:25.781Z,21.22
2018-03-29T10:31:35.979Z,21.3
2018-03-29T10:32:46.060Z,21.37
2018-03-29T10:33:56.154Z,21.34
2018-03-29T10:35:05.998Z,21.41
2018-03-29T10:36:15.579Z,21.45
2018-03-29T10:37:25.718Z,21.59
2018-03-29T10:38:35.300Z,21.64
2018-03-29T10:39:45.125Z,21.73
2018-03-29T10:40:54.963Z,21.82
2018-03-29T10:42:04.808Z,21.78
2018-03-29T10:43:14.616Z,21.74
2018-03-29T10:44:24.478Z,21.86
2018-03-29T10:45:34.576Z,22.04
2018-03-29T10:46:44.179Z,22.27
2018-03-29T10:47:54.033Z,22.42
2018-03-29T10:49:03.859Z,22.52
2018-03-29T10:50:13.714Z,22.67
2018-03-29T10:51:23.308Z,22.71
2018-03-29T10:52:33.500Z,22.76
2018-03-29T10:53:43.673Z,22.76
2018-03-29T10:54:53.504Z,22.79
2018-03-29T10:56:03.578Z,22.7
2018-03-29T10:57:13.124Z,22.45
2018-03-29T10:58:22.937Z,22.46
2018-03-29T10:59:33.053Z,22.54
2018-03-29T11:00:42.618Z,22.54
2018-03-29T11:01:52.196Z,22.59
2018-03-29T11:03:02.284Z,22.61
2018-03-29T11:04:12.443Z,22.64
2018-03-29T11:05:22.277Z,22.67
2018-03-29T11:06:32.381Z,22.75
2018-03-29T11:07:42.213Z,22.75
2018-03-29T11:08:52.297Z,22.69
2018-03-29T11:10:01.849Z,22.7
2018-03-29T11:11:11.934Z,22.66
2018-03-29T11:12:21.764Z,22.63
2018-03-29T11:13:31.849Z,22.6
2018-03-29T11:14:41.920Z,22.49
2018-03-29T11:15:51.742Z,22.49
2018-03-29T11:17:01.302Z,22.44
2018-03-29T11:18:11.452Z,22.42
2018-03-29T11:19:21.561Z,22.44
2018-03-29T11:20:31.646Z,22.42
2018-03-29T11:21:41.465Z,22.33
2018-03-29T11:22:51.300Z,22.2
2018-03-29T11:24:01.131Z,21.93
2018-03-29T11:25:10.796Z,21.59
2018-03-29T11:26:20.884Z,21.58
2018-03-29T11:27:30.796Z,21.51
2018-03-29T11:28:40.834Z,21.43
2018-03-29T11:29:50.644Z,21.49
2018-03-29T11:31:00.783Z,21.43
2018-03-29T11:32:10.874Z,21.49
2018-03-29T11:33:21.047Z,21.53
2018-03-29T11:34:30.879Z,21.51
2018-03-29T11:35:41.016Z,21.64
2018-03-29T11:36:50.893Z,21.7
2018-03-29T11:38:00.987Z,21.92
2018-03-29T11:39:11.138Z,22.15
2018-03-29T11:40:21.264Z,22.39
2018-03-29T11:41:31.097Z,22.57
2018-03-29T11:42:41.177Z,22.6
2018-03-29T11:43:51.269Z,22.69
2018-03-29T11:45:01.374Z,22.67
2018-03-29T11:46:11.203Z,22.66
2018-03-29T11:47:21.053Z,22.61
2018-03-29T11:48:31.211Z,22.64
2018-03-29T11:49:41.276Z,22.7
2018-03-29T11:50:51.153Z,22.7
2018-03-29T11:52:01.253Z,22.76
2018-03-29T11:53:11.348Z,22.82
2018-03-29T11:54:21.189Z,22.78
2018-03-29T11:55:31.292Z,22.82
2018-03-29T11:56:41.380Z,22.57
2018-03-29T11:57:51.656Z,22.34
2018-03-29T11:59:01.780Z,22.07
2018-03-29T12:00:11.618Z,21.85
2018-03-29T12:01:21.456Z,21.67
2018-03-29T12:02:31.271Z,21.68
2018-03-29T12:03:41.378Z,21.68
2018-03-29T12:04:51.478Z,21.85
2018-03-29T12:06:01.795Z,21.83
2018-03-29T12:07:11.908Z,21.94
2018-03-29T12:08:22.037Z,21.93
2018-03-29T12:09:32.129Z,21.97
2018-03-29T12:10:42.230Z,22.02
2018-03-29T12:11:52.528Z,22.12
2018-03-29T12:13:02.100Z,22.24
2018-03-29T12:14:11.992Z,22.24
2018-03-29T12:15:21.815Z,22.24
2018-03-29T12:16:31.625Z,22.31
2018-03-29T12:17:41.720Z,22.14
2018-03-29T12:18:51.806Z,21.94
2018-03-29T12:20:01.953Z,21.86
2018-03-29T12:21:12.050Z,21.82
2018-03-29T12:22:22.139Z,21.93
2018-03-29T12:23:32.226Z,22.08
2018-03-29T12:24:42.324Z,22.05
2018-03-29T12:25:52.469Z,22.02
2018-03-29T12:27:02.817Z,21.97
2018-03-29T12:28:13.120Z,21.86
2018-03-29T12:29:23.241Z,21.83
2018-03-29T12:30:33.314Z,21.86
2018-03-29T12:31:43.384Z,21.76
2018-03-29T12:32:53.213Z,21.73
2018-03-29T12:34:03.311Z,21.62
2018-03-29T12:35:13.405Z,21.67
2018-03-29T12:36:23.306Z,21.68
2018-03-29T12:37:33.491Z,21.67
2018-03-29T12:38:43.594Z,21.66
2018-03-29T12:39:53.700Z,21.7
2018-03-29T12:41:03.536Z,21.62
2018-03-29T12:42:13.108Z,21.58
2018-03-29T12:43:23.203Z,21.51
2018-03-29T12:44:33.045Z,21.45
2018-03-29T12:45:43.140Z,21.43
2018-03-29T12:46:53.047Z,21.34
2018-03-29T12:48:03.251Z,21.12
2018-03-29T12:49:13.464Z,20.98
2018-03-29T12:50:23.731Z,20.79
2018-03-29T12:51:33.689Z,20.68
2018-03-29T12:52:43.525Z,20.72
2018-03-29T12:53:53.661Z,20.67
2018-03-29T12:55:03.828Z,20.57
2018-03-29T12:56:13.927Z,20.71
2018-03-29T12:57:23.760Z,20.75
2018-03-29T12:58:33.619Z,20.86
2018-03-29T12:59:43.455Z,20.86
2018-03-29T13:00:53.626Z,20.85
2018-03-29T13:02:03.738Z,20.96
2018-03-29T13:03:13.834Z,20.97
2018-03-29T13:04:23.696Z,21.04
2018-03-29T13:05:33.775Z,21.06
2018-03-29T13:06:43.051Z,21.01
2018-03-29T13:07:52.876Z,20.97
2018-03-29T13:09:03.035Z,20.98
2018-03-29T13:10:13.140Z,20.94
2018-03-29T13:11:22.953Z,21.15
2018-03-29T13:12:33.098Z,21.22
2018-03-29T13:13:43.198Z,21.28
2018-03-29T13:14:52.226Z,21.31
2018-03-29T13:16:02.051Z,21.33
2018-03-29T13:17:12.157Z,21.38
2018-03-29T13:18:22.252Z,21.41
2018-03-29T13:19:32.642Z,21.45
2018-03-29T13:20:42.236Z,21.48
2018-03-29T13:21:52.059Z,21.46
2018-03-29T13:23:02.138Z,21.45
2018-03-29T13:24:11.974Z,21.45
2018-03-29T13:25:21.876Z,21.31
2018-03-29T13:26:31.968Z,21.37
2018-03-29T13:27:42.067Z,21.19
2018-03-29T13:28:51.874Z,21.31
2018-03-29T13:30:01.804Z,21.36
2018-03-29T13:31:11.616Z,21.37
2018-03-29T13:32:21.171Z,21.41
2018-03-29T13:33:31.007Z,21.41
2018-03-29T13:34:40.837Z,21.4
2018-03-29T13:35:50.465Z,21.38
2018-03-29T13:37:00.770Z,21.36
2018-03-29T13:38:10.856Z,21.38
2018-03-29T13:39:20.941Z,21.37
2018-03-29T13:40:30.761Z,21.19
2018-03-29T13:41:40.642Z,21.22
2018-03-29T13:42:50.190Z,21.12
2018-03-29T13:44:00.313Z,21.01
2018-03-29T13:45:09.877Z,20.96
2018-03-29T13:46:19.432Z,20.9
2018-03-29T13:47:29.522Z,20.79
2018-03-29T13:48:39.429Z,20.82
2018-03-29T13:49:49.538Z,20.67
2018-03-29T13:50:59.103Z,20.63
2018-03-29T13:52:09.209Z,20.49
2018-03-29T13:53:19.037Z,20.46
2018-03-29T13:54:29.104Z,20.38
2018-03-29T13:55:39.212Z,20.27
2018-03-29T13:56:49.306Z,20.26
2018-03-29T13:57:59.129Z,20.11
2018-03-29T13:59:09.252Z,19.92
2018-03-29T14:00:19.370Z,19.82
2018-03-29T14:01:29.213Z,19.53
2018-03-29T14:02:38.776Z,19.37
2018-03-29T14:03:48.866Z,19.34
2018-03-29T14:04:59.036Z,19.28
2018-03-29T14:06:09.136Z,19.12
2018-03-29T14:07:19.253Z,19.09
2018-03-29T14:08:29.083Z,19
2018-03-29T14:09:38.921Z,19.13
2018-03-29T14:10:48.999Z,19.13
2018-03-29T14:11:59.076Z,19.06
2018-03-29T14:13:08.928Z,19.17
2018-03-29T14:14:18.758Z,19.12
2018-03-29T14:15:28.586Z,19.16
2018-03-29T14:16:38.886Z,19.16
2018-03-29T14:17:49.132Z,19.13
2018-03-29T14:18:59.306Z,18.97
2018-03-29T14:20:09.118Z,18.96
2018-03-29T14:21:18.665Z,18.86
2018-03-29T14:22:28.224Z,18.74
2018-03-29T14:23:38.537Z,18.69
2018-03-29T14:24:48.391Z,18.6
2018-03-29T14:25:58.534Z,18.47
2018-03-29T14:27:08.664Z,18.42
2018-03-29T14:28:18.239Z,18.26
2018-03-29T14:29:28.471Z,18.26
2018-03-29T14:30:38.575Z,18.21
2018-03-29T14:31:48.392Z,18.24
2018-03-29T14:32:57.946Z,18.19
2018-03-29T14:34:08.017Z,18.17
2018-03-29T14:35:17.340Z,18.2
2018-03-29T14:36:27.430Z,18.16
2018-03-29T14:37:37.201Z,18.16
2018-03-29T14:38:47.105Z,18.14
2018-03-29T14:39:56.947Z,18.02
2018-03-29T14:41:07.080Z,18.02
2018-03-29T14:42:16.668Z,17.94
2018-03-29T14:43:26.527Z,17.84
2018-03-29T14:44:36.645Z,17.8
2018-03-29T14:45:46.795Z,17.84
2018-03-29T14:46:57.056Z,17.76
2018-03-29T14:48:08.585Z,17.52
2018-03-29T14:49:20.672Z,17.47
2018-03-29T14:50:33.425Z,17.47
2018-03-29T14:51:46.372Z,17.49
2018-03-29T14:52:58.774Z,17.46
2018-03-29T14:54:11.328Z,17.49
2018-03-29T14:55:23.481Z,17.42
2018-03-29T14:56:34.493Z,17.36
2018-03-29T14:57:45.547Z,17.32
2018-03-29T14:58:56.038Z,17.2
2018-03-29T15:00:05.889Z,17.18
2018-03-29T15:01:16.075Z,17.15
2018-03-29T15:02:25.622Z,17.27
2018-03-29T15:03:35.444Z,17.18
2018-03-29T15:04:45.545Z,17.28
2018-03-29T15:05:55.594Z,17.24
2018-03-29T15:07:05.456Z,17.15
2018-03-29T15:08:15.017Z,17.22
2018-03-29T15:09:25.124Z,17.27
2018-03-29T15:10:34.948Z,17.22
2018-03-29T15:11:44.526Z,17.25
2018-03-29T15:12:54.595Z,17.13
2018-03-29T15:14:04.759Z,17.15
2018-03-29T15:15:14.594Z,17.17
2018-03-29T15:16:24.685Z,17.13
2018-03-29T15:17:34.777Z,17.24
2018-03-29T15:18:44.926Z,17.15
2018-03-29T15:19:54.493Z,17.17
2018-03-29T15:21:04.584Z,17.17
2018-03-29T15:22:14.686Z,17.09
2018-03-29T15:23:24.782Z,17.17
2018-03-29T15:24:34.882Z,17.1
2018-03-29T15:25:45.005Z,16.94
2018-03-29T15:26:54.572Z,16.94
2018-03-29T15:28:04.694Z,16.88
2018-03-29T15:29:14.808Z,16.82
2018-03-29T15:30:24.371Z,16.85
2018-03-29T15:31:34.582Z,16.81
2018-03-29T15:32:44.162Z,16.76
2018-03-29T15:33:54.265Z,16.69
2018-03-29T15:35:04.616Z,16.59
2018-03-29T15:36:14.722Z,16.58
2018-03-29T15:37:24.888Z,16.55
2018-03-29T15:38:35.190Z,16.57
2018-03-29T15:39:45.262Z,16.54
2018-03-29T15:40:55.398Z,16.62
2018-03-29T15:42:05.007Z,16.63
2018-03-29T15:43:15.080Z,16.59